Flight Track Log - Related Links

Times and Time Zones

All times are in EDT time to prevent confusion due to time zone crossing. See the N400PU flight status page for this flight to view local times or setup timezone preferences in your user account.


Time Position Orientation Groundspeed Altitude Reporting Facility
EDT Latitude Longitude Course Direction KTS MPH feet Rate Location/Type
Fri 02:32:36 PM 41.8556 -91.6389 111° Southeast 207 238 3,900  Level Chicago Center
Fri 02:33:38 PM 41.8300 -91.5642 115° Southeast 216 249 6,500 2,468 Climbing Chicago Center
Fri 02:34:40 PM 41.8031 -91.4831 114° Southeast 239 275 9,000 2,419 Climbing Chicago Center
Fri 02:35:42 PM 41.7733 -91.3947 114° Southeast 260 299 11,500 2,565 Climbing Chicago Center
Fri 02:36:44 PM 41.7375 -91.2856 114° Southeast 269 310 14,300 2,468 Climbing Chicago Center
Fri 02:37:00 PM 41.7240 -91.1458 111° Southeast  Level Estimated
Fri 02:37:46 PM 41.7061 -91.1911 114° Southeast 279 321 16,600  Level Chicago Center
Fri 02:38:48 PM 41.6756 -91.0956 113° Southeast 282 325 18,800 1,984 Climbing Chicago Center
Fri 02:39:50 PM 41.6414 -90.9986 115° Southeast 285 328 20,700 1,984 Climbing Chicago Center
Fri 02:40:52 PM 41.5992 -90.8719 114° Southeast 299 344 22,900 1,113 Climbing Chicago Center
Fri 02:41:54 PM 41.5600 -90.7519 114° Southeast 339 390 23,000 48 Climbing Chicago Center
Fri 02:42:57 PM 41.5103 -90.6094 115° Southeast 401 461 23,000  Level Chicago Center
Fri 02:43:59 PM 41.4600 -90.4617 114° Southeast 435 501 23,000  Level Chicago Center
Fri 02:45:01 PM 41.4078 -90.3089 114° Southeast 451 519 23,000  Level Chicago Center
Fri 02:46:03 PM 41.3564 -90.1586 114° Southeast 446 513 23,000  Level Chicago Center
Fri 02:47:05 PM 41.3056 -90.0072 114° Southeast 447 514 23,000  Level Chicago Center
Fri 02:48:07 PM 41.2433 -89.8275 115° Southeast 445 512 23,000  Level Chicago Center
Fri 02:49:09 PM 41.1914 -89.6778 115° Southeast 444 511 23,000  Level Chicago Center
Fri 02:50:11 PM 41.1408 -89.5236 113° Southeast 445 512 23,000  Level Chicago Center
Fri 02:51:13 PM 41.1019 -89.3703 109° East 445 512 23,000  Level Chicago Center
Fri 02:52:15 PM 41.0603 -89.2178 110° East 440 506 23,000  Level Chicago Center
Fri 02:53:17 PM 41.0183 -89.0692 110° East 439 505 23,000  Level Chicago Center
Fri 02:54:19 PM 40.9678 -88.9164 114° Southeast 438 504 23,000  Level Chicago Center
Fri 02:55:21 PM 40.9000 -88.7536 119° Southeast 441 507 23,000  Level Chicago Center
Fri 02:56:24 PM 40.8403 -88.6150 120° Southeast 441 507 23,000  Level Chicago Center
Fri 02:57:26 PM 40.7811 -88.4775 120° Southeast 437 503 23,000 -242 Level Chicago Center
Fri 02:58:28 PM 40.7206 -88.3383 120° Southeast 440 506 22,500 -1,548 Descending Chicago Center
Fri 02:59:30 PM 40.6597 -88.1717 116° Southeast 429 494 19,800 -2,371 Descending Chicago Center
Fri 03:00:32 PM 40.6239 -88.0292 108° East 415 478 17,600 -2,177 Descending Chicago Center
Fri 03:01:34 PM 40.5967 -87.8919 105° East 395 455 15,300 -2,274 Descending Chicago Center
Fri 03:02:36 PM 40.5736 -87.7558 103° East 385 443 12,900 -2,094 Descending Chicago Center
Fri 03:04:03 PM 40.5367 -87.5767 105° East 313 360 10,100 -1,707 Descending Chicago Center
Fri 03:04:39 PM 40.5244 -87.5181 105° East 276 318 9,400 -619 Descending Chicago Center
Fri 03:05:40 PM 40.5094 -87.4350 103° East 247 284 9,100 -879 Descending Chicago Center
Fri 03:06:35 PM 40.4942 -87.3517 104° East 241 277 7,700 -1,826 Descending Chicago Center
Fri 03:07:35 PM 40.4769 -87.2658 105° East 249 287 5,600 -2,139 Descending Chicago Center
Fri 03:08:30 PM 40.4506 -87.1928 115° Southeast 251 289 3,600 -1,865 Descending Chicago Center
Fri 03:08:49 PM 40.4481 -87.1747 100° East 254 292 3,300 -1,182 Descending Chicago Center
Fri 03:09:36 PM 40.4294 -87.0958 107° East 247 284 2,300 -778 Descending Chicago Center
Fri 03:10:37 PM 40.4236 -87.0353 97° East 153 176 1,900 -492 Descending Chicago Center
Fri 03:11:38 PM 40.4189 -86.9939 99° East 125 144 1,300 -590 Descending Chicago Center
Fri 03:13:00 PM 40.4000 -86.9333 108° East  Level FlightAware Approximate
Fri 03:20:00 PM 40.4123 -86.9369 108° East  Level Estimated
Fri 03:21:00 PM 40.4123 -86.9369 108° East  Level Estimated
Fri 03:22:00 PM 40.4123 -86.9369 108° East  Level Estimated

Login

Don't have an account? Register now (free) for customized features, flight alerts, and more!